Latest Weather Observations for Thredbo Top Station

IDN60801

Issued at 11:33 pm EST Friday 29 July 2016 (issued every 30 minutes, with the page automatically refreshed every 10 minutes)

About weather observations | Map of weather stations | Latest weather observations for NSW | Other Formats
Station Details ID: 071032 Name: THREDBO AWS Lat: -36.49 Lon: 148.29 Height: 1957.0 m
Data from the previous 72 hours. | See also: Recent months at Thredbo Top Station
Date/Time
EST
Temp
°C
App
Temp
°C
Dew
Point
°C
Rel
Hum
%
Delta-T
°C
Wind Press
QNH
hPa
Press
MSL
hPa
Rain since
9am
mm
Dir  Spd
km/h
Gust
km/h
Spd
kts
Gust
kts
29/11:30pm -1.9 -7.4 -2.0 99 -0.1 WNW 17 35 9 19 1020.0 1023.8 0.0
29/11:00pm -1.8 -7.8 -1.9 99 -0.1 WNW 20 35 11 19 1020.1 1023.9 0.0
29/10:30pm -1.7 -9.3 -1.8 99 0.0 WNW 28 41 15 22 1019.9 1023.6 0.0
29/10:00pm -1.7 -9.3 -1.8 99 0.0 WNW 28 39 15 21 1019.6 1023.4 0.0
29/09:30pm -1.7 -9.3 -1.8 99 0.0 WNW 28 44 15 24 1019.5 1023.2 0.0
29/09:00pm -1.9 -7.8 -2.0 99 -0.1 WNW 19 30 10 16 1019.6 1023.4 0.0
29/08:30pm -2.1 -7.6 -2.2 99 -0.1 WNW 17 30 9 16 1019.6 1023.4 0.0
29/08:00pm -2.2 -9.4 -2.3 99 -0.1 WNW 26 35 14 19 1019.4 1023.1 0.0
29/07:30pm -1.9 -9.5 -2.0 99 -0.1 WNW 28 39 15 21 1019.1 1022.9 0.0
29/07:00pm -1.8 -8.6 -1.9 99 -0.1 WNW 24 30 13 16 1019.3 1023.0 0.0
29/06:30pm -1.7 -8.9 -1.8 99 0.0 NW 26 33 14 18 1018.9 1022.6 0.0
29/06:00pm -1.8 -10.1 -1.9 99 -0.1 NW 32 37 17 20 1018.0 1021.7 0.0
29/05:30pm -1.8 -9.7 -1.9 99 -0.1 NW 30 46 16 25 1017.9 1021.6 0.0
29/05:29pm -1.8 -9.4 -1.9 99 -0.1 NW 28 46 15 25 1017.8 1021.5 0.0
29/05:00pm -1.8 -9.4 -1.9 99 -0.1 NW 28 37 15 20 1017.4 1021.1 0.0
29/04:30pm -1.9 -10.2 -2.0 99 -0.1 NW 32 41 17 22 1017.6 1021.2 0.0
29/04:00pm -1.5 -10.4 -2.1 96 0.2 NW 35 41 19 22 1017.3 1021.0 0.0
29/03:30pm -2.2 -12.3 -2.3 99 -0.1 NW 41 52 22 28 1017.2 1020.8 0.0
29/03:00pm -2.1 -13.9 -2.4 98 0.0 NW 50 61 27 33 1016.7 1020.3 0.0
29/02:30pm -0.7 -12.2 -3.2 83 0.9 NW 48 59 26 32 1016.7 1020.3 0.0
29/02:00pm -1.4 -12.4 -1.7 98 0.0 NW 46 57 25 31 1017.1 1020.7 0.0
29/01:30pm -1.5 -13.2 -1.9 97 0.1 NW 50 59 27 32 1017.6 1021.2 0.0
29/01:09pm -1.4 -12.0 -1.8 97 0.1 NW 44 63 24 34 1017.1 1020.7 0.0
29/01:00pm -1.4 -13.1 -1.7 98 0.0 NW 50 63 27 34 1017.4 1021.1 0.0
29/12:35pm -0.6 -11.6 -2.0 90 0.5 NW 46 65 25 35 1017.9 1021.6 0.0
29/12:30pm -1.0 -12.4 -2.0 93 0.3 WNW 48 61 26 33 1017.6 1021.2 0.0
29/12:00pm -0.6 -13.0 -1.4 94 0.3 WNW 54 72 29 39 1018.3 1022.0 0.0
29/11:38am -0.8 -13.0 -2.1 91 0.5 WNW 52 72 28 39 1018.2 1021.8 0.0
29/11:30am -0.9 -13.0 -1.5 96 0.2 WNW 52 69 28 37 1018.7 1022.4 0.0
29/11:00am -0.1 -11.8 -1.2 92 0.4 WNW 50 69 27 37 1018.5 1022.2 0.0
29/10:47am 0.7 -10.8 -2.9 77 1.4 WNW 48 72 26 39 1019.3 1023.0 0.0
29/10:30am -1.8 -12.8 -1.9 99 -0.1 WNW 46 56 25 30 1018.8 1022.5 0.0
29/10:00am -2.1 -12.2 -2.2 99 -0.1 WNW 41 54 22 29 1019.9 1023.6 0.0
29/09:30am -2.8 -13.3 -2.9 99 -0.1 NW 43 57 23 31 1019.0 1022.7 0.0
29/09:00am -3.2 -13.8 -3.3 99 -0.1 NW 43 56 23 30 1019.3 1023.0 0.0
29/08:37am -2.9 -13.5 -3.2 98 0.0 NW 43 61 23 33 1018.9 1022.6 0.0
29/08:30am -3.3 -14.5 -3.6 98 0.0 NW 46 57 25 31 1018.4 1022.1 0.0
29/08:00am -1.9 -13.3 -5.7 75 1.2 WNW 46 59 25 32 1018.9 1022.6 0.0
29/07:30am -0.8 -11.5 -8.5 56 2.5 WNW 41 48 22 26 1019.6 1023.4 0.0
29/07:00am -0.9 -12.2 -11.6 44 3.2 NW 43 50 23 27 1019.6 1023.4 0.0
29/06:30am -0.8 -12.1 -10.4 48 3.0 NW 43 54 23 29 1019.5 1023.2 0.0
29/06:00am -0.7 -12.0 -11.7 43 3.3 NW 43 52 23 28 1019.5 1023.2 0.0
29/05:30am 0.2 -11.2 -13.1 36 3.9 NW 43 50 23 27 1019.6 1023.4 0.0
29/05:00am -0.1 -10.4 -13.7 35 3.9 NW 37 48 20 26 1019.7 1023.5 0.0
29/04:30am 0.9 -10.6 -14.7 30 4.5 WNW 43 52 23 28 1019.9 1023.6 0.0
29/04:00am 0.0 -10.8 -15.1 31 4.2 NW 39 46 21 25 1019.6 1023.4 0.0
29/03:30am 0.3 -10.1 -15.6 29 4.4 NW 37 46 20 25 1019.7 1023.5 0.0
29/03:00am 0.9 -9.2 -15.9 27 4.7 NW 35 43 19 23 1019.7 1023.5 0.0
29/02:30am 0.2 -11.0 -16.1 28 4.5 NW 41 50 22 27 1020.2 1024.0 0.0
29/02:00am 0.5 -11.1 -16.7 26 4.7 NW 43 50 23 27 1020.4 1024.1 0.0
29/01:30am 0.9 -10.9 -16.9 25 4.9 WNW 44 56 24 30 1021.1 1024.9 0.0
29/01:00am 0.4 -11.1 -15.1 30 4.4 WNW 43 52 23 28 1020.8 1024.6 0.0
29/12:30am 0.1 -11.5 -15.4 30 4.3 WNW 43 52 23 28 1020.7 1024.5 0.0
29/12:00am 0.3 -11.4 -14.4 32 4.2 WNW 44 56 24 30 1021.0 1024.8 0.0
 
Date/Time
EST
Temp
°C
App
Temp
°C
Dew
Point
°C
Rel
Hum
%
Delta-T
°C
Wind Press
QNH
hPa
Press
MSL
hPa
Rain since
9am
mm
Dir  Spd
km/h
Gust
km/h
Spd
kts
Gust
kts
28/11:30pm -0.4 -11.5 -13.3 37 3.7 WNW 41 50 22 27 1021.4 1025.3 0.0
28/11:20pm -0.2 -11.3 -13.1 37 3.8 WNW 41 59 22 32 1021.4 1025.3 0.0
28/11:00pm 0.9 -10.2 -13.5 33 4.3 WNW 41 52 22 28 1021.6 1025.4 0.0
28/10:30pm 1.4 -11.0 -13.1 33 4.4 WNW 48 65 26 35 1021.2 1025.0 0.0
28/10:00pm 0.1 -11.9 -12.5 38 3.8 WNW 46 57 25 31 1021.2 1025.0 0.0
28/09:30pm -0.3 -11.5 -9.7 49 3.0 WNW 43 54 23 29 1021.6 1025.4 0.0
28/09:00pm -0.6 -11.3 -7.8 58 2.4 WNW 41 50 22 27 1021.8 1025.7 0.0
28/08:30pm 0.0 -10.6 -7.0 59 2.4 WNW 41 52 22 28 1021.8 1025.7 0.0
28/08:00pm 0.4 -12.2 -5.8 63 2.2 WNW 52 65 28 35 1021.2 1025.0 0.0
28/07:30pm -1.0 -12.7 -4.3 78 1.2 WNW 48 61 26 33 1021.2 1025.0 0.0
28/07:00pm -0.5 -11.3 -3.5 80 1.1 WNW 44 57 24 31 1021.0 1024.8 0.0
28/06:30pm -1.8 -12.6 -3.7 87 0.6 WNW 44 56 24 30 1020.8 1024.6 0.0
28/06:00pm -2.6 -13.4 -3.9 91 0.3 WNW 44 59 24 32 1020.7 1024.5 0.0
28/05:30pm -3.2 -14.8 -4.0 94 0.1 NW 48 57 26 31 1020.4 1024.1 0.0
28/05:00pm -2.4 -13.5 -3.1 95 0.1 NW 46 57 25 31 1020.2 1024.0 0.0
28/04:30pm -3.4 -14.6 -3.5 99 -0.1 NW 46 59 25 32 1019.7 1023.5 0.0
28/04:00pm -3.2 -14.4 -3.3 99 -0.1 NW 46 59 25 32 1019.5 1023.2 0.0
28/03:30pm -3.1 -14.6 -3.2 99 -0.1 NW 48 59 26 32 1020.1 1023.9 0.0
28/03:00pm -2.2 -13.3 -2.5 98 0.0 WNW 46 61 25 33 1019.9 1023.6 0.0
28/02:30pm -2.1 -12.7 -2.2 99 -0.1 WNW 44 56 24 30 1019.5 1023.2 0.0
28/02:00pm -2.4 -13.8 -2.5 99 -0.1 WNW 48 65 26 35 1019.6 1023.4 0.0
28/01:30pm -2.8 -14.3 -2.9 99 -0.1 WNW 48 59 26 32 1019.3 1023.0 0.0
28/01:00pm -2.8 -14.7 -2.9 99 -0.1 WNW 50 59 27 32 1019.4 1023.1 0.0
28/12:30pm -2.8 -15.8 -2.9 99 -0.1 WNW 56 67 30 36 1019.3 1023.0 0.0
28/12:00pm -2.7 -15.3 -2.8 99 -0.1 WNW 54 67 29 36 1019.9 1023.6 0.0
28/11:30am -3.0 -15.3 -3.1 99 -0.1 WNW 52 65 28 35 1020.2 1024.0 0.0
28/11:07am -3.0 -14.5 -3.1 99 -0.1 WNW 48 69 26 37 1020.5 1024.3 0.0
28/11:00am -3.1 -15.0 -3.2 99 -0.1 NW 50 61 27 33 1020.5 1024.3 0.0
28/10:30am -3.3 -16.9 -3.4 99 -0.1 NW 59 70 32 38 1020.4 1024.1 0.0
28/10:00am -2.9 -16.1 -3.0 99 -0.1 WNW 57 70 31 38 1020.2 1024.0 0.0
28/09:34am -2.5 -15.7 -2.6 99 -0.1 WNW 57 80 31 43 1019.9 1023.6 0.0
28/09:30am -2.8 -16.0 -2.9 99 -0.1 WNW 57 70 31 38 1019.9 1023.6 0.0
28/09:00am -2.4 -15.6 -2.5 99 -0.1 WNW 57 70 31 38 1020.0 1023.8 0.0
28/08:30am -2.4 -14.2 -2.5 99 -0.1 WNW 50 63 27 34 1019.9 1023.6 0.0
28/08:00am -2.2 -13.2 -2.3 99 -0.1 WNW 46 61 25 33 1019.9 1023.6 0.0
28/07:30am -2.9 -14.0 -3.0 99 -0.1 NW 46 59 25 32 1020.0 1023.8 0.0
28/07:00am -1.6 -12.6 -1.7 99 0.0 WNW 46 72 25 39 1019.6 1023.4 0.0
28/06:54am -0.9 -11.8 -1.0 99 0.0 WNW 46 72 25 39 1019.7 1023.5 0.0
28/06:30am -1.7 -12.3 -1.8 99 0.0 NW 44 57 24 31 1019.3 1023.0 0.0
28/06:17am -1.7 -12.7 -1.8 99 0.0 WNW 46 65 25 35 1019.3 1023.0 0.0
28/06:00am -1.2 -11.7 -1.3 99 0.0 WNW 44 56 24 30 1018.9 1022.6 0.0
28/05:30am -1.0 -10.9 -1.1 99 0.0 WNW 41 52 22 28 1018.8 1022.5 0.0
28/05:00am -1.9 -11.2 -2.0 99 -0.1 WNW 37 44 20 24 1018.7 1022.4 0.0
28/04:30am -2.5 -10.9 -2.6 99 -0.1 WNW 32 46 17 25 1018.7 1022.4 0.0
28/04:00am -1.8 -9.7 -1.9 99 -0.1 W 30 44 16 24 1018.7 1022.4 0.0
28/03:30am -1.3 -9.2 -1.4 99 0.0 W 30 48 16 26 1018.5 1022.2 0.0
28/03:00am -2.4 -10.8 -2.5 99 -0.1 W 32 46 17 25 1018.3 1022.0 0.0
28/02:30am -1.8 -9.4 -1.9 99 -0.1 W 28 41 15 22 1018.3 1022.0 0.0
28/02:00am -1.7 -8.9 -1.8 99 0.0 W 26 39 14 21 1018.4 1022.1 0.0
28/01:30am -2.0 -9.2 -2.1 99 -0.1 W 26 41 14 22 1018.5 1022.2 0.0
28/01:00am -2.2 -9.8 -2.3 99 -0.1 W 28 43 15 23 1018.3 1022.0 0.0
28/12:30am -2.6 -9.9 -2.7 99 -0.1 W 26 39 14 21 1018.3 1022.0 0.0
28/12:00am -3.6 -11.4 -3.7 99 -0.1 W 28 43 15 23 1017.8 1021.5 0.0
 
Date/Time
EST
Temp
°C
App
Temp
°C
Dew
Point
°C
Rel
Hum
%
Delta-T
°C
Wind Press
QNH
hPa
Press
MSL
hPa
Rain since
9am
mm
Dir  Spd
km/h
Gust
km/h
Spd
kts
Gust
kts
27/11:30pm -3.7 -10.4 -3.8 99 -0.1 W 22 33 12 18 1018.3 1022.0 0.0
27/11:00pm -3.9 -9.6 -4.0 99 -0.1 W 17 24 9 13 1018.3 1022.0 0.0
27/10:30pm -3.5 -9.6 -3.6 99 -0.1 W 19 30 10 16 1018.3 1022.0 0.0
27/10:00pm -3.0 -10.7 -3.1 99 -0.1 WNW 28 39 15 21 1017.8 1021.5 0.0
27/09:52pm -3.1 -10.8 -3.2 99 -0.1 WNW 28 46 15 25 1017.6 1021.2 0.0
27/09:30pm -2.8 -12.6 -2.9 99 -0.1 WNW 39 50 21 27 1017.0 1020.6 0.0
27/09:09pm -2.8 -14.7 -2.9 99 -0.1 WNW 50 69 27 37 1015.9 1019.4 0.0
27/09:00pm -3.0 -16.0 -3.1 99 -0.1 NW 56 67 30 36 1015.5 1019.0 0.0
27/08:30pm -3.0 -15.7 -3.1 99 -0.1 WNW 54 69 29 37 1014.9 1018.4 0.0
27/08:19pm -3.4 -16.5 -3.5 99 -0.1 WNW 56 74 30 40 1015.5 1019.0 0.0
27/08:00pm -3.4 -17.1 -3.5 99 -0.1 NW 59 76 32 41 1014.9 1018.4 0.0
27/07:31pm -2.7 -14.9 -2.8 99 -0.1 NW 52 70 28 38 1014.5 1018.0 0.0
27/07:30pm -2.7 -15.3 -2.8 99 -0.1 NW 54 70 29 38 1014.7 1018.2 0.0
27/07:13pm -2.8 -15.8 -2.9 99 -0.1 NW 56 76 30 41 1014.4 1017.9 0.0
27/07:00pm -2.4 -13.8 -2.5 99 -0.1 WNW 48 63 26 34 1014.7 1018.2 0.0
27/06:53pm -2.7 -15.3 -2.8 99 -0.1 WNW 54 72 29 39 1014.7 1018.2 0.0
27/06:30pm -2.7 -15.7 -2.8 99 -0.1 NW 56 70 30 38 - - 0.0
27/06:13pm -2.3 -14.1 -2.4 99 -0.1 WNW 50 70 27 38 - - 0.0
27/06:00pm -2.6 -15.2 -2.7 99 -0.1 NW 54 69 29 37 - - 0.0
27/05:30pm -2.1 -12.7 -2.2 99 -0.1 NW 44 63 24 34 - - 0.0
27/05:00pm -2.3 -13.7 -2.4 99 -0.1 NW 48 69 26 37 - - 0.0
27/04:40pm -2.3 -13.7 -2.4 99 -0.1 NW 48 67 26 36 - - 0.0
27/04:30pm -2.4 -14.2 -2.5 99 -0.1 WNW 50 67 27 36 - - 0.0
27/04:06pm -2.3 -13.0 -2.4 99 -0.1 NW 44 63 24 34 - - 0.0
27/04:00pm -2.5 -13.6 -2.6 99 -0.1 NW 46 59 25 32 - - 0.0
27/03:30pm -2.3 -14.1 -2.4 99 -0.1 NW 50 61 27 33 - - 0.0
27/03:22pm -2.2 -12.3 -2.3 99 -0.1 NW 41 61 22 33 - - 0.0
27/03:00pm -2.2 -12.7 -2.3 99 -0.1 WNW 43 54 23 29 - - 0.0
27/02:51pm -2.3 -11.3 -2.4 99 -0.1 NW 35 54 19 29 - - 0.0
27/02:30pm -2.6 -13.1 -2.7 99 -0.1 WNW 43 54 23 29 - - 0.0
27/02:00pm -2.6 -13.1 -2.7 99 -0.1 NW 43 56 23 30 - - 0.0
27/01:30pm -2.3 -12.0 -2.4 99 -0.1 WNW 39 52 21 28 - - 0.0
27/01:00pm -2.5 -11.5 -2.6 99 -0.1 NW 35 48 19 26 - - 0.0
27/12:30pm -2.5 -10.9 -2.6 99 -0.1 WNW 32 44 17 24 - - 0.0
27/12:00pm -2.2 -10.6 -2.3 99 -0.1 WNW 32 48 17 26 - - 0.0
27/11:30am -2.6 -11.6 -2.7 99 -0.1 WNW 35 50 19 27 - - 0.0
27/11:00am -2.9 -12.7 -3.0 99 -0.1 WNW 39 56 21 30 - - 0.0
27/10:30am -3.0 -13.6 -3.1 99 -0.1 WNW 43 54 23 29 - - 0.0
27/10:00am -2.6 -11.6 -2.7 99 -0.1 NW 35 46 19 25 - - 0.0
27/09:33am -2.8 -12.2 -2.9 99 -0.1 NW 37 56 20 30 - - 0.0
27/09:30am -2.7 -12.5 -2.8 99 -0.1 NW 39 54 21 29 - - 0.0
27/09:05am -3.0 -11.5 -3.1 99 -0.1 NW 32 50 17 27 - - 0.0
27/09:00am -3.0 -11.7 -3.1 99 -0.1 NW 33 50 18 27 - - 0.0
27/08:30am -3.0 -12.8 -3.1 99 -0.1 NW 39 57 21 31 - - 0.0
27/08:00am -2.8 -11.4 -2.9 99 -0.1 NW 33 57 18 31 - - 0.0
27/07:58am -2.8 -11.4 -2.9 99 -0.1 NW 33 57 18 31 - - 0.0
27/07:30am -2.9 -11.9 -3.0 99 -0.1 NNW 35 50 19 27 - - 0.0
27/07:00am -3.2 -14.7 -3.3 99 -0.1 NW 48 67 26 36 - - 0.0
27/06:30am -3.4 -15.3 -3.5 99 -0.1 NW 50 74 27 40 - - 0.0
27/06:00am -3.1 -14.6 -3.2 99 -0.1 NW 48 67 26 36 - - 0.0
27/05:30am -3.2 -13.8 -3.3 99 -0.1 NW 43 61 23 33 - - 0.0
27/05:25am -3.3 -13.9 -3.4 99 -0.1 NNW 43 61 23 33 - - 0.0
27/05:00am -3.6 -12.3 -3.7 99 -0.1 NNW 33 44 18 24 - - 0.0
27/04:30am -3.6 -13.5 -3.7 99 -0.1 NNW 39 54 21 29 - - 0.0
27/04:00am -3.7 -14.0 -3.8 99 -0.1 NNW 41 61 22 33 - - 0.0
27/03:57am -3.7 -14.0 -3.8 99 -0.1 NNW 41 61 22 33 - - 0.0
27/03:30am -3.7 -13.2 -3.8 99 -0.1 NNW 37 48 20 26 - - 0.0
27/03:00am -3.8 -14.6 -3.9 99 -0.1 NNW 44 52 24 28 - - 0.0
27/02:42am -3.9 -14.6 -4.0 99 -0.1 NNW 43 72 23 39 - - 0.0
27/02:30am -4.0 -13.9 -4.1 99 -0.1 NNW 39 50 21 27 - - 0.0
27/02:00am -4.0 -14.3 -4.1 99 -0.1 NNW 41 61 22 33 - - 0.0
27/01:30am -4.2 -13.4 -4.3 99 -0.2 NNW 35 72 19 39 - - 0.0
27/01:00am -4.5 -14.9 -4.8 98 -0.1 NNW 41 63 22 34 - - 0.0
27/12:33am -4.6 -16.7 -4.9 98 -0.1 NNW 50 69 27 37 - - 0.0
27/12:30am -4.6 -16.7 -4.9 98 -0.1 NNW 50 65 27 35 - - 0.0
27/12:07am -5.0 -16.4 -5.3 98 -0.1 NNW 46 65 25 35 - - 0.0
27/12:00am -5.1 -16.5 -5.4 98 -0.1 NNW 46 59 25 32 - - 0.0

Other Formats:

Comma delimited format used in spreadsheet applications
http://www.bom.gov.au/fwo/IDN60801/IDN60801.95909.axf

JavaScript Object Notation format (JSON) in row-major order
http://www.bom.gov.au/fwo/IDN60801/IDN60801.95909.json